createdAt,value
2019-03-19T00:00:16.609Z,101277.66
2019-03-19T00:02:45.029Z,101280.39
2019-03-19T00:05:13.540Z,101284.95
2019-03-19T00:07:41.977Z,101291.14
2019-03-19T00:10:10.590Z,101285.83
2019-03-19T00:12:38.986Z,101282.23
2019-03-19T00:15:10.009Z,101281.52
2019-03-19T00:17:38.435Z,101291.88
2019-03-19T00:20:16.659Z,101297.33
2019-03-19T00:22:45.237Z,101292.86
2019-03-19T00:25:13.655Z,101296.06
2019-03-19T00:27:42.082Z,101302.38
2019-03-19T00:30:13.611Z,101299.40
2019-03-19T00:32:42.048Z,101300.27
2019-03-19T00:35:10.651Z,101301.63
2019-03-19T00:37:39.069Z,101297.33
2019-03-19T00:40:10.136Z,101300.89
2019-03-19T00:42:38.562Z,101299.17
2019-03-19T00:45:14.410Z,101300.66
2019-03-19T00:47:42.935Z,101314.63
2019-03-19T00:50:12.995Z,101305.23
2019-03-19T00:52:41.414Z,101309.70
2019-03-19T00:55:10.056Z,101310.67
2019-03-19T00:57:38.508Z,101311.19
2019-03-19T01:00:09.962Z,101308.59
2019-03-19T01:02:38.563Z,101305.88
2019-03-19T01:05:08.403Z,101310.09
2019-03-19T01:07:36.812Z,101310.22
2019-03-19T01:10:13.418Z,101312.42
2019-03-19T01:12:42.078Z,101311.19
2019-03-19T01:15:12.444Z,101315.78
2019-03-19T01:17:41.057Z,101309.47
2019-03-19T01:20:14.470Z,101316.27
2019-03-19T01:22:42.887Z,101315.91
2019-03-19T01:25:11.857Z,101311.45
2019-03-19T01:27:40.313Z,101314.69
2019-03-19T01:30:11.958Z,101313.68
2019-03-19T01:32:40.336Z,101314.30
2019-03-19T01:35:08.748Z,101312.09
2019-03-19T01:37:37.188Z,101312.09
2019-03-19T01:40:08.272Z,101319.86
2019-03-19T01:42:36.705Z,101316.78
2019-03-19T01:45:08.169Z,101318.14
2019-03-19T01:47:36.596Z,101316.39
2019-03-19T01:50:07.618Z,101313.68
2019-03-19T01:52:36.030Z,101307.53
2019-03-19T01:55:06.894Z,101307.88
2019-03-19T01:57:35.295Z,101309.73
2019-03-19T02:00:05.738Z,101317.53
2019-03-19T02:02:34.148Z,101319.77
2019-03-19T02:05:02.602Z,101321.61
2019-03-19T02:07:31.029Z,101321.61
2019-03-19T02:09:59.459Z,101324.45
2019-03-19T02:12:27.929Z,101320.86
2019-03-19T02:14:56.334Z,101315.55
2019-03-19T02:17:24.736Z,101315.20
2019-03-19T02:19:53.168Z,101314.97
2019-03-19T02:22:21.584Z,101314.32
2019-03-19T02:24:50.014Z,101310.76
2019-03-19T02:27:18.436Z,101305.45
2019-03-19T02:29:46.866Z,101301.37
2019-03-19T02:32:15.289Z,101301.73
2019-03-19T02:34:43.711Z,101305.06
2019-03-19T02:37:12.224Z,101307.78
2019-03-19T02:39:40.610Z,101312.38
2019-03-19T02:42:09.045Z,101311.98
2019-03-19T02:44:37.495Z,101310.27
2019-03-19T02:47:05.911Z,101311.63
2019-03-19T02:49:34.357Z,101310.75
2019-03-19T02:52:02.775Z,101316.32
2019-03-19T02:54:31.188Z,101317.67
2019-03-19T02:56:59.617Z,101320.40
2019-03-19T02:59:28.056Z,101322.76
2019-03-19T03:01:56.490Z,101328.68
2019-03-19T03:04:24.902Z,101325.21
2019-03-19T03:06:53.327Z,101341.05
2019-03-19T03:09:21.758Z,101344.77
2019-03-19T03:11:50.189Z,101346.48
2019-03-19T03:14:18.606Z,101350.56
2019-03-19T03:16:47.040Z,101348.84
2019-03-19T03:19:15.489Z,101353.89
2019-03-19T03:21:43.921Z,101353.05
2019-03-19T03:24:12.364Z,101364.89
2019-03-19T03:26:47.356Z,101367.12
2019-03-19T03:29:10.919Z,101369.84
2019-03-19T03:31:39.361Z,101374.92
2019-03-19T03:34:07.763Z,101385.80
2019-03-19T03:36:36.179Z,101382.69
2019-03-19T03:39:07.131Z,101382.33
2019-03-19T03:41:35.557Z,101386.41
2019-03-19T03:44:04.040Z,101386.88
2019-03-19T03:46:32.437Z,101387.41
2019-03-19T03:49:00.976Z,101389.86
2019-03-19T03:51:29.389Z,101389.37
2019-03-19T03:53:57.797Z,101394.80
2019-03-19T03:56:26.227Z,101402.48
2019-03-19T03:59:00.484Z,101401.25
2019-03-19T04:01:25.225Z,101405.45
2019-03-19T04:03:53.631Z,101414.96
2019-03-19T04:06:22.043Z,101413.21
2019-03-19T04:08:50.475Z,101420.40
2019-03-19T04:11:18.892Z,101425.83
2019-03-19T04:13:47.333Z,101426.31
2019-03-19T04:16:15.737Z,101429.52
2019-03-19T04:18:44.193Z,101431.75
2019-03-19T04:21:12.600Z,101435.34
2019-03-19T04:23:41.056Z,101432.11
2019-03-19T04:26:09.445Z,101441.14
2019-03-19T04:28:37.902Z,101441.50
2019-03-19T04:31:06.341Z,101443.98
2019-03-19T04:33:34.761Z,101453.38
2019-03-19T04:36:03.196Z,101448.42
2019-03-19T04:38:31.632Z,101452.50
2019-03-19T04:41:00.056Z,101456.58
2019-03-19T04:43:28.499Z,101464.73
2019-03-19T04:45:56.909Z,101469.80
2019-03-19T04:48:25.318Z,101466.73
2019-03-19T04:50:53.767Z,101471.17
2019-03-19T04:53:24.156Z,101470.29
2019-03-19T04:55:52.325Z,101472.65
2019-03-19T04:58:20.728Z,101479.80
2019-03-19T05:00:49.155Z,101485.24
2019-03-19T05:03:17.561Z,101489.84
2019-03-19T05:05:45.987Z,101491.19
2019-03-19T05:08:14.389Z,101488.84
2019-03-19T05:10:42.840Z,101492.03
2019-03-19T05:13:11.269Z,101493.91
2019-03-19T05:15:39.694Z,101491.31
2019-03-19T05:18:08.104Z,101491.67
2019-03-19T05:20:36.563Z,101492.67
2019-03-19T05:23:04.991Z,101497.23
2019-03-19T05:25:33.396Z,101498.59
2019-03-19T05:28:01.834Z,101501.80
2019-03-19T05:30:30.255Z,101504.91
2019-03-19T05:32:58.748Z,101503.55
2019-03-19T05:35:27.122Z,101506.75
2019-03-19T05:37:55.546Z,101516.27
2019-03-19T05:40:23.981Z,101518.62
2019-03-19T05:42:52.413Z,101515.91
2019-03-19T05:45:20.823Z,101523.94
2019-03-19T05:47:49.241Z,101528.98
2019-03-19T05:50:24.361Z,101532.57
2019-03-19T05:52:52.769Z,101530.22
2019-03-19T05:55:21.200Z,101531.57
2019-03-19T05:57:50.472Z,101533.93
2019-03-19T06:00:21.391Z,101534.30
2019-03-19T06:02:49.796Z,101529.86
2019-03-19T06:05:20.789Z,101535.53
2019-03-19T06:07:48.343Z,101542.84
2019-03-19T06:10:16.750Z,101542.84
2019-03-19T06:12:45.205Z,101537.41
2019-03-19T06:15:14.475Z,101541.36
2019-03-19T06:17:42.877Z,101545.80
2019-03-19T06:20:19.045Z,101544.32
2019-03-19T06:22:47.647Z,101550.52
2019-03-19T06:25:16.349Z,101558.03
2019-03-19T06:27:44.793Z,101555.19
2019-03-19T06:30:23.314Z,101560.90
2019-03-19T06:32:51.744Z,101568.81
2019-03-19T06:35:21.256Z,101565.85
2019-03-19T06:37:49.669Z,101564.00
2019-03-19T06:40:24.182Z,101576.36
2019-03-19T06:42:52.597Z,101572.42
2019-03-19T06:45:23.145Z,101574.66
2019-03-19T06:47:51.857Z,101572.05
2019-03-19T06:50:21.213Z,101582.44
2019-03-19T06:52:49.624Z,101573.45
2019-03-19T06:55:19.119Z,101587.08
2019-03-19T06:57:47.606Z,101582.98
2019-03-19T07:00:22.884Z,101583.84
2019-03-19T07:02:51.290Z,101580.75
2019-03-19T07:05:20.733Z,101589.16
2019-03-19T07:07:49.174Z,101581.38
2019-03-19T07:10:19.708Z,101583.59
2019-03-19T07:12:48.128Z,101588.89
2019-03-19T07:15:19.620Z,101587.41
2019-03-19T07:17:48.120Z,101593.09
2019-03-19T07:20:21.698Z,101593.95
2019-03-19T07:22:50.201Z,101600.23
2019-03-19T07:25:18.678Z,101594.50
2019-03-19T07:27:47.117Z,101598.38
2019-03-19T07:30:19.644Z,101606.03
2019-03-19T07:32:48.058Z,101615.80
2019-03-19T07:35:16.750Z,101616.15
2019-03-19T07:37:45.293Z,101614.75
2019-03-19T07:40:15.548Z,101619.06
2019-03-19T07:42:44.053Z,101618.18
2019-03-19T07:45:23.386Z,101626.94
2019-03-19T07:47:51.830Z,101625.39
2019-03-19T07:50:22.265Z,101618.57
2019-03-19T07:52:51.007Z,101621.61
2019-03-19T07:55:19.409Z,101619.13
2019-03-19T07:57:47.834Z,101621.84
2019-03-19T08:00:21.068Z,101629.84
2019-03-19T08:02:49.473Z,101627.09
2019-03-19T08:05:18.008Z,101633.23
2019-03-19T08:07:46.656Z,101631.33
2019-03-19T08:10:18.904Z,101622.95
2019-03-19T08:12:47.408Z,101628.75
2019-03-19T08:15:22.270Z,101638.62
2019-03-19T08:17:50.686Z,101636.58
2019-03-19T08:20:19.546Z,101640.75
2019-03-19T08:22:48.040Z,101641.22
2019-03-19T08:25:17.116Z,101646.52
2019-03-19T08:27:45.631Z,101655.16
2019-03-19T08:30:24.913Z,101650.16
2019-03-19T08:32:53.580Z,101651.11
2019-03-19T08:35:22.268Z,101649.58
2019-03-19T08:37:50.684Z,101648.42
2019-03-19T08:40:19.956Z,101658.16
2019-03-19T08:42:48.405Z,101657.01
2019-03-19T08:45:19.104Z,101654.52
2019-03-19T08:47:47.525Z,101654.59
2019-03-19T08:50:17.498Z,101649.05
2019-03-19T08:52:45.988Z,101655.21
2019-03-19T08:55:14.391Z,101663.83
2019-03-19T08:57:42.824Z,101671.36
2019-03-19T09:00:16.447Z,101669.18
2019-03-19T09:02:44.888Z,101671.20
2019-03-19T09:05:13.464Z,101671.64
2019-03-19T09:07:41.877Z,101670.39
2019-03-19T09:10:15.442Z,101678.90
2019-03-19T09:12:43.860Z,101685.30
2019-03-19T09:15:13.867Z,101686.77
2019-03-19T09:17:42.382Z,101686.19
2019-03-19T09:20:14.811Z,101691.37
2019-03-19T09:22:43.320Z,101680.58
2019-03-19T09:25:12.294Z,101682.34
2019-03-19T09:27:40.882Z,101691.37
2019-03-19T09:30:15.168Z,101693.59
2019-03-19T09:32:43.568Z,101695.57
2019-03-19T09:35:12.266Z,101693.66
2019-03-19T09:37:44.543Z,101703.23
2019-03-19T09:40:17.846Z,101698.77
2019-03-19T09:42:46.531Z,101704.09
2019-03-19T09:45:16.196Z,101707.95
2019-03-19T09:47:44.786Z,101705.94
2019-03-19T09:50:18.690Z,101702.47
2019-03-19T09:52:47.164Z,101700.58
2019-03-19T09:55:15.628Z,101709.45
2019-03-19T09:57:44.032Z,101703.35
2019-03-19T10:00:20.578Z,101708.37
2019-03-19T10:02:49.166Z,101706.20
2019-03-19T10:05:17.707Z,101706.09
2019-03-19T10:07:46.383Z,101706.47
2019-03-19T10:10:19.217Z,101713.70
2019-03-19T10:12:47.720Z,101708.63
2019-03-19T10:15:16.529Z,101706.95
2019-03-19T10:17:44.903Z,101706.30
2019-03-19T10:20:18.299Z,101708.89
2019-03-19T10:22:46.928Z,101701.88
2019-03-19T10:25:16.512Z,101704.31
2019-03-19T10:27:44.966Z,101705.24
2019-03-19T10:30:21.331Z,101705.79
2019-03-19T10:32:49.842Z,101713.52
2019-03-19T10:35:19.198Z,101712.45
2019-03-19T10:37:47.713Z,101709.53
2019-03-19T10:40:17.888Z,101705.20
2019-03-19T10:42:46.367Z,101705.14
2019-03-19T10:45:24.793Z,101701.33
2019-03-19T10:47:53.399Z,101700.70
2019-03-19T10:50:22.734Z,101699.13
2019-03-19T10:52:51.159Z,101701.23
2019-03-19T10:55:19.849Z,101691.50
2019-03-19T10:57:48.229Z,101692.63
2019-03-19T11:00:19.441Z,101688.67
2019-03-19T11:02:48.110Z,101691.44
2019-03-19T11:05:17.087Z,101692.55
2019-03-19T11:07:45.499Z,101683.05
2019-03-19T11:10:15.454Z,101680.25
2019-03-19T11:12:44.401Z,101697.70
2019-03-19T11:15:15.806Z,101700.77
2019-03-19T11:17:44.213Z,101706.91
2019-03-19T11:20:14.899Z,101705.53
2019-03-19T11:22:43.375Z,101705.88
2019-03-19T11:25:14.585Z,101701.37
2019-03-19T11:27:43.482Z,101708.55
2019-03-19T11:30:17.391Z,101714.47
2019-03-19T11:32:45.997Z,101711.51
2019-03-19T11:35:15.139Z,101707.09
2019-03-19T11:37:43.643Z,101700.95
2019-03-19T11:40:16.741Z,101704.09
2019-03-19T11:42:45.334Z,101708.66
2019-03-19T11:45:16.031Z,101715.17
2019-03-19T11:47:44.539Z,101706.78
2019-03-19T11:50:15.486Z,101709.50
2019-03-19T11:52:43.980Z,101706.78
2019-03-19T11:55:14.637Z,101701.53
2019-03-19T11:57:43.062Z,101706.02
2019-03-19T12:00:24.890Z,101700.73
2019-03-19T12:02:53.309Z,101701.27
2019-03-19T12:05:21.723Z,101701.00
2019-03-19T12:07:50.145Z,101701.45
2019-03-19T12:10:18.592Z,101703.70
2019-03-19T12:12:47.029Z,101702.36
2019-03-19T12:15:15.488Z,101704.72
2019-03-19T12:17:43.929Z,101705.28
2019-03-19T12:20:13.715Z,101700.95
2019-03-19T12:22:42.184Z,101704.14
2019-03-19T12:25:11.945Z,101698.63
2019-03-19T12:27:40.476Z,101702.84
2019-03-19T12:30:22.258Z,101702.75
2019-03-19T12:32:47.725Z,101702.14
2019-03-19T12:35:17.467Z,101705.53
2019-03-19T12:37:45.899Z,101703.61
2019-03-19T12:40:19.795Z,101706.66
2019-03-19T12:42:48.230Z,101697.30
2019-03-19T12:45:21.512Z,101697.00
2019-03-19T12:47:50.087Z,101692.83
2019-03-19T12:50:26.505Z,101688.86
2019-03-19T12:52:54.982Z,101697.44
2019-03-19T12:55:23.496Z,101691.45
2019-03-19T12:57:51.944Z,101695.72
2019-03-19T13:00:34.475Z,101687.49
2019-03-19T13:02:59.779Z,101686.96
2019-03-19T13:05:28.239Z,101687.11
2019-03-19T13:07:56.668Z,101691.55
2019-03-19T13:10:25.437Z,101689.47
2019-03-19T13:12:53.902Z,101685.06
2019-03-19T13:15:22.545Z,101686.03
2019-03-19T13:17:50.996Z,101686.30
2019-03-19T13:20:20.590Z,101680.05
2019-03-19T13:22:49.304Z,101688.98
2019-03-19T13:25:24.868Z,101684.16
2019-03-19T13:27:53.458Z,101687.70
2019-03-19T13:30:26.446Z,101685.80
2019-03-19T13:32:54.858Z,101687.78
2019-03-19T13:35:23.709Z,101679.59
2019-03-19T13:37:52.152Z,101683.52
2019-03-19T13:40:20.587Z,101675.48
2019-03-19T13:42:49.081Z,101673.76
2019-03-19T13:45:22.756Z,101671.57
2019-03-19T13:47:51.159Z,101668.51
2019-03-19T13:50:20.338Z,101675.72
2019-03-19T13:52:48.767Z,101675.58
2019-03-19T13:55:19.468Z,101674.08
2019-03-19T13:57:47.969Z,101675.01
2019-03-19T14:00:17.120Z,101673.70
2019-03-19T14:02:45.744Z,101670.18
2019-03-19T14:05:15.321Z,101668.27
2019-03-19T14:07:43.993Z,101665.88
2019-03-19T14:10:17.586Z,101664.21
2019-03-19T14:12:46.217Z,101670.47
2019-03-19T14:15:19.404Z,101678.83
2019-03-19T14:17:47.870Z,101677.75
2019-03-19T14:20:19.069Z,101666.59
2019-03-19T14:22:47.763Z,101667.23
2019-03-19T14:25:17.099Z,101672.51
2019-03-19T14:27:45.959Z,101673.44
2019-03-19T14:30:17.111Z,101665.38
2019-03-19T14:32:45.735Z,101675.38
2019-03-19T14:35:14.530Z,101669.96
2019-03-19T14:37:43.253Z,101667.02
2019-03-19T14:40:16.749Z,101661.84
2019-03-19T14:42:45.283Z,101662.62
2019-03-19T14:45:14.630Z,101664.52
2019-03-19T14:47:43.230Z,101653.19
2019-03-19T14:50:16.290Z,101657.29
2019-03-19T14:52:44.955Z,101652.70
2019-03-19T14:55:13.412Z,101651.13
2019-03-19T14:57:41.826Z,101649.52
2019-03-19T15:00:15.790Z,101652.39
2019-03-19T15:02:44.331Z,101660.75
2019-03-19T15:05:14.285Z,101663.48
2019-03-19T15:07:42.856Z,101665.34
2019-03-19T15:10:19.397Z,101665.62
2019-03-19T15:12:47.911Z,101664.89
2019-03-19T15:15:22.745Z,101664.66
2019-03-19T15:17:52.488Z,101661.92
2019-03-19T15:20:28.279Z,101668.90
2019-03-19T15:22:56.788Z,101669.70
2019-03-19T15:25:25.279Z,101670.20
2019-03-19T15:27:53.900Z,101667.75
2019-03-19T15:30:22.360Z,101670.63
2019-03-19T15:32:50.798Z,101673.56
2019-03-19T15:35:19.226Z,101671.84
2019-03-19T15:37:47.806Z,101669.11
2019-03-19T15:40:18.296Z,101673.22
2019-03-19T15:42:46.749Z,101671.47
2019-03-19T15:45:31.244Z,101672.12
2019-03-19T15:47:59.698Z,101669.68
2019-03-19T15:50:28.491Z,101672.77
2019-03-19T15:52:56.946Z,101673.78
2019-03-19T15:55:25.464Z,101669.68
2019-03-19T15:57:53.908Z,101670.31
2019-03-19T16:00:22.610Z,101675.05
2019-03-19T16:02:51.371Z,101685.00
2019-03-19T16:05:19.785Z,101687.00
2019-03-19T16:07:48.291Z,101686.12
2019-03-19T16:10:17.863Z,101694.84
2019-03-19T16:12:46.315Z,101689.52
2019-03-19T16:15:15.914Z,101697.72
2019-03-19T16:17:44.397Z,101706.91
2019-03-19T16:20:18.159Z,101707.05
2019-03-19T16:22:46.622Z,101712.16
2019-03-19T16:25:15.221Z,101711.21
2019-03-19T16:27:43.715Z,101709.11
2019-03-19T16:30:15.357Z,101714.08
2019-03-19T16:32:44.028Z,101716.08
2019-03-19T16:35:13.397Z,101715.87
2019-03-19T16:37:42.482Z,101721.09
2019-03-19T16:40:18.782Z,101721.36
2019-03-19T16:42:47.306Z,101728.86
2019-03-19T16:45:17.810Z,101731.83
2019-03-19T16:47:45.921Z,101727.88
2019-03-19T16:50:19.511Z,101729.38
2019-03-19T16:52:48.016Z,101735.64
2019-03-19T16:55:18.372Z,101737.50
2019-03-19T16:57:46.890Z,101734.27
2019-03-19T17:00:23.288Z,101743.97
2019-03-19T17:02:51.731Z,101741.52
2019-03-19T17:05:20.331Z,101741.78
2019-03-19T17:07:48.778Z,101741.05
2019-03-19T17:10:26.303Z,101743.91
2019-03-19T17:12:54.759Z,101748.15
2019-03-19T17:15:23.211Z,101756.97
2019-03-19T17:17:51.716Z,101755.61
2019-03-19T17:20:20.510Z,101763.06
2019-03-19T17:22:48.937Z,101760.98
2019-03-19T17:25:21.585Z,101768.52
2019-03-19T17:27:50.007Z,101773.14
2019-03-19T17:30:31.568Z,101775.58
2019-03-19T17:33:00.141Z,101778.45
2019-03-19T17:35:28.569Z,101778.23
2019-03-19T17:37:57.006Z,101785.33
2019-03-19T17:40:25.517Z,101788.68
2019-03-19T17:42:53.936Z,101792.91
2019-03-19T17:45:22.471Z,101795.42
2019-03-19T17:47:50.903Z,101797.05
2019-03-19T17:50:35.893Z,101793.94
2019-03-19T17:53:04.487Z,101799.53
2019-03-19T17:55:32.947Z,101807.37
2019-03-19T17:58:01.369Z,101812.83
2019-03-19T18:00:37.676Z,101810.86
2019-03-19T18:03:06.106Z,101813.45
2019-03-19T18:05:34.553Z,101821.42
2019-03-19T18:08:02.992Z,101811.51
2019-03-19T18:10:31.433Z,101823.53
2019-03-19T18:12:59.893Z,101817.81
2019-03-19T18:15:28.325Z,101824.89
2019-03-19T18:17:56.825Z,101824.09
2019-03-19T18:20:25.277Z,101830.75
2019-03-19T18:22:53.929Z,101831.49
2019-03-19T18:25:22.429Z,101833.21
2019-03-19T18:27:50.875Z,101829.77
2019-03-19T18:30:21.819Z,101835.72
2019-03-19T18:32:50.260Z,101837.70
2019-03-19T18:35:18.784Z,101834.83
2019-03-19T18:37:47.312Z,101840.20
2019-03-19T18:40:16.855Z,101841.04
2019-03-19T18:42:45.474Z,101830.50
2019-03-19T18:45:19.049Z,101832.36
2019-03-19T18:47:47.714Z,101842.00
2019-03-19T18:50:16.964Z,101840.02
2019-03-19T18:52:45.382Z,101844.11
2019-03-19T18:55:14.151Z,101854.91
2019-03-19T18:57:42.771Z,101848.95
2019-03-19T19:00:19.008Z,101854.91
2019-03-19T19:02:50.267Z,101859.41
2019-03-19T19:05:19.017Z,101860.02
2019-03-19T19:07:47.705Z,101864.88
2019-03-19T19:10:17.130Z,101865.62
2019-03-19T19:12:45.587Z,101866.77
2019-03-19T19:15:24.188Z,101874.70
2019-03-19T19:17:52.675Z,101877.07
2019-03-19T19:20:21.205Z,101875.70
2019-03-19T19:22:50.002Z,101877.78
2019-03-19T19:25:22.545Z,101877.64
2019-03-19T19:27:50.979Z,101882.11
2019-03-19T19:30:32.658Z,101890.83
2019-03-19T19:33:02.480Z,101887.22
2019-03-19T19:35:31.255Z,101889.95
2019-03-19T19:37:59.676Z,101896.03
2019-03-19T19:40:28.127Z,101898.41
2019-03-19T19:42:56.563Z,101905.14
2019-03-19T19:45:24.991Z,101896.82
2019-03-19T19:47:53.505Z,101912.10
2019-03-19T19:50:23.705Z,101908.63
2019-03-19T19:52:52.337Z,101911.27
2019-03-19T19:55:20.809Z,101914.73
2019-03-19T19:57:49.332Z,101918.97
2019-03-19T20:00:21.715Z,101913.63
2019-03-19T20:02:50.196Z,101918.97
2019-03-19T20:05:18.996Z,101916.62
2019-03-19T20:07:47.503Z,101922.83
2019-03-19T20:10:20.332Z,101924.58
2019-03-19T20:12:48.752Z,101926.59
2019-03-19T20:15:17.212Z,101920.88
2019-03-19T20:17:45.714Z,101931.92
2019-03-19T20:20:19.827Z,101927.73
2019-03-19T20:22:48.286Z,101927.85
2019-03-19T20:25:16.709Z,101933.57
2019-03-19T20:27:45.203Z,101935.42
2019-03-19T20:30:19.389Z,101927.84
2019-03-19T20:32:47.891Z,101939.28
2019-03-19T20:35:16.321Z,101941.75
2019-03-19T20:37:44.926Z,101944.12
2019-03-19T20:40:14.811Z,101949.70
2019-03-19T20:42:43.334Z,101944.86
2019-03-19T20:45:13.961Z,101946.11
2019-03-19T20:47:42.373Z,101960.38
2019-03-19T20:50:19.492Z,101958.77
2019-03-19T20:52:47.982Z,101961.63
2019-03-19T20:55:16.392Z,101969.55
2019-03-19T20:57:44.848Z,101971.64
2019-03-19T21:00:15.634Z,101969.17
2019-03-19T21:02:44.328Z,101969.91
2019-03-19T21:05:13.087Z,101973.60
2019-03-19T21:07:41.542Z,101971.12
2019-03-19T21:10:20.536Z,101974.49
2019-03-19T21:12:49.443Z,101980.07
2019-03-19T21:15:23.287Z,101985.66
2019-03-19T21:17:51.793Z,101980.80
2019-03-19T21:20:20.210Z,101990.47
2019-03-19T21:22:48.698Z,101991.96
2019-03-19T21:25:17.134Z,101985.75
2019-03-19T21:27:45.545Z,101995.78
2019-03-19T21:30:21.962Z,101998.14
2019-03-19T21:32:50.679Z,102004.60
2019-03-19T21:35:24.726Z,102005.57
2019-03-19T21:37:53.172Z,102009.30
2019-03-19T21:40:21.682Z,102010.30
2019-03-19T21:42:50.275Z,102012.27
2019-03-19T21:45:19.691Z,102014.24
2019-03-19T21:47:48.192Z,102013.39
2019-03-19T21:50:23.454Z,102018.45
2019-03-19T21:52:51.903Z,102020.33
2019-03-19T21:55:20.311Z,102019.45
2019-03-19T21:57:48.770Z,102018.81
2019-03-19T22:00:19.216Z,102029.13
2019-03-19T22:02:47.843Z,102030.24
2019-03-19T22:05:16.295Z,102025.39
2019-03-19T22:07:44.781Z,102029.61
2019-03-19T22:10:18.900Z,102030.97
2019-03-19T22:12:49.252Z,102034.66
2019-03-19T22:15:19.873Z,102034.30
2019-03-19T22:17:48.420Z,102040.63
2019-03-19T22:20:17.005Z,102042.11
2019-03-19T22:22:45.425Z,102043.08
2019-03-19T22:25:15.109Z,102044.08
2019-03-19T22:27:43.795Z,102045.08
2019-03-19T22:30:16.860Z,102047.41
2019-03-19T22:32:45.378Z,102045.69
2019-03-19T22:35:13.888Z,102042.20
2019-03-19T22:37:42.309Z,102046.05
2019-03-19T22:40:17.969Z,102048.02
2019-03-19T22:42:46.764Z,102049.89
2019-03-19T22:45:19.009Z,102045.80
2019-03-19T22:47:47.783Z,102048.13
2019-03-19T22:50:17.481Z,102053.70
2019-03-19T22:52:45.962Z,102055.19
2019-03-19T22:55:16.125Z,102059.39
2019-03-19T22:57:44.640Z,102062.59
2019-03-19T23:00:31.524Z,102057.66
2019-03-19T23:03:00.005Z,102059.99
2019-03-19T23:05:28.497Z,102065.96
2019-03-19T23:07:56.934Z,102065.08
2019-03-19T23:10:25.338Z,102068.41
2019-03-19T23:12:53.856Z,102067.92
2019-03-19T23:15:22.285Z,102071.25
2019-03-19T23:17:50.798Z,102076.82
2019-03-19T23:20:19.211Z,102076.34
2019-03-19T23:22:47.616Z,102081.02
2019-03-19T23:25:16.195Z,102084.27
2019-03-19T23:27:44.612Z,102084.38
2019-03-19T23:30:17.727Z,102090.80
2019-03-19T23:32:46.143Z,102095.00
2019-03-19T23:35:14.639Z,102096.36
2019-03-19T23:37:43.059Z,102093.28
2019-03-19T23:40:14.211Z,102099.57
2019-03-19T23:42:42.624Z,102110.47
2019-03-19T23:45:12.299Z,102107.38
2019-03-19T23:47:40.709Z,102102.53
2019-03-19T23:50:12.041Z,102104.29
2019-03-19T23:52:40.474Z,102097.59
2019-03-19T23:55:10.162Z,102098.95
2019-03-19T23:57:38.576Z,102104.41
